Tiempo atmosférico en la estación meteorológica de Coria, Cáceres (313 m.)



Fecha
DESCASC
Temp. máxima en grados centígrados (hora)
DESCASC
Temp. mínima en grados centígrados (hora)
DESCASC
Temp. media en grados centígrados
DESCASC
Racha de viento máxima en m/sg (hora)
DESCASC
Velocidad máxima media en intervalos de 10 minutos(hora)
DESCASC
Precipitaciones diarias en mm
DESCASC
Precipitaciones de 00:00 a 06:00 en mm
DESCASC
Precipitaciones de 06:00 a 12:00 en mm
DESCASC
Precipitaciones de 12:00 a 18:00 en mm
DESCASC
Precipitaciones de 18:00 a 24:00 en mm
DESCASC
28-02-2021 17.1 (17:00) 5.8 (07:00) 11.5 12.22 (12:20) 8.33 (10:30) 0 0 0 0 0
27-02-2021 21.1 (17:00) 6.4 (08:30) 13.8 5.56 (00:30) 3.61 (21:50) 0 0 0 0 0
26-02-2021 16.4 (14:20) 10.4 (01:10) 13.4 12.5 (10:40) 7.5 (10:40) 0 0 0 0 0
25-02-2021 15.5 (15:00) 9.1 (00:00) 12.3 -- (--) -- (--) 0.8 0 0.8 0 0
24-02-2021 18.1 (17:00) 7 (00:00) 12.6 -- (--) -- (--) 0 0 0 0 0
23-02-2021 16.9 (16:20) 3.3 (00:00) 10.1 -- (--) -- (--) 0 0 0 0 0
22-02-2021 15.4 (16:50) 2.8 (00:00) 9.1 7.78 (15:20) 3.89 (15:20) 0 0 0 0 0
21-02-2021 14.3 (04:00) 6.4 (00:00) 10.4 -- (--) -- (--) 4.2 0 4 0.2 0
20-02-2021 14.7 (15:50) 9.3 (00:00) 12 12.22 (18:50) 7.5 (18:30) 0 0 0 0 0
19-02-2021 16.8 (14:30) 7.3 (00:00) 12 8.33 (13:20) 5.28 (13:20) 0 0 0 0 0
18-02-2021 16.8 (16:00) 8.5 (00:00) 12.6 6.67 (11:50) 4.17 (11:40) 0 0 0 0 0
17-02-2021 18.4 (16:40) 9.3 (00:00) 13.8 5.28 (15:00) 3.06 (17:40) 0 0 0 0 0
16-02-2021 17.4 (16:40) 7.8 (00:00) 12.6 7.78 (02:30) 5 (02:20) 0 0 0 0 0
15-02-2021 17.3 (16:10) 8.4 (00:00) 12.8 15.28 (11:40) 9.17 (11:50) 0 0 0 0 0
14-02-2021 19.1 (17:10) 6 (00:00) 12.6 8.33 (12:40) 5.28 (12:20) 0 0 0 0 0
13-02-2021 18 (16:40) 6 (00:00) 12 4.72 (14:50) 2.78 (04:10) 0 0 0 0 0
12-02-2021 17.1 (16:30) 8.5 (00:00) 12.8 9.17 (03:50) 5.83 (04:00) 7 7 0 0 0
11-02-2021 16.9 (14:40) 10.7 (00:00) 13.8 7.78 (17:10) 4.72 (17:20) 1.4 1.2 0.2 0 0
10-02-2021 15.8 (15:40) 7.2 (00:00) 11.5 17.78 (02:40) 10 (02:40) 0.2 0 0 0 0.2
09-02-2021 12.8 (16:50) 8.7 (00:00) 10.8 17.22 (12:40) 11.39 (13:00) 21 1.6 15.4 3.8 0.2
08-02-2021 13.3 (15:40) 7.1 (00:00) 10.2 16.67 (15:40) 10.83 (15:40) 10.8 8.2 2 0.6 0
07-02-2021 11.5 (13:10) 4.5 (00:00) 8 8.89 (23:40) 5.83 (15:20) 3.6 0 0 0.6 3
06-02-2021 12.7 (16:40) 8 (00:00) 10.3 5.56 (16:50) 4.17 (16:50) 2.4 1 0.2 1.2 0
05-02-2021 11.7 (12:50) 8.5 (00:00) 10.1 9.72 (07:20) 6.11 (07:20) 13.4 3.2 3.8 3.6 2.8
04-02-2021 11.6 (00:10) 8.5 (00:00) 10.1 7.22 (17:10) 5 (17:10) 18.6 0.2 8 7 3.4
03-02-2021 13.8 (14:20) 10.7 (00:00) 12.3 9.17 (14:50) 4.72 (13:10) 14 0.2 2 11.2 0.6
02-02-2021 16.2 (14:00) 11.1 (00:00) 13.7 9.17 (13:10) 4.72 (13:10) 0 0 0 0 0
01-02-2021 15.9 (16:00) 7.3 (00:00) 11.6 10.56 (16:00) 6.67 (16:00) 0 0 0 0 0
31-01-2021 14.7 (18:20) 7.6 (00:00) 11.1 9.72 (19:20) 6.39 (18:50) 0.4 0 0.2 0.2 0

Gráficas

Temp. máximas Temp. mínimas Temp. medias Precipitaciones Rachas de viento máximas Velocidades máximas media en intervalos de 10 minutos

Datos horarios

Fecha y hora oficial Temperatura (ºC) Velocidad del viento (km/h) Dirección del viento Racha (km/h) Dirección de racha Precipitación (mm) Presión (hPa) Tendencia (hPa) Humedad (%)
2021-03-01 23:00:00 11.8 16 Este 25 Este 0 983.7 0.9 75
2021-03-01 22:00:00 11.8 15 Este 24 Este 0 983.8 1.6 74
2021-03-01 21:00:00 11.8 12 Este 22 Este 0 983.4 1.7 75
2021-03-01 20:00:00 12.5 15 Este 35 Este 0 982.8 1.3 69
2021-03-01 19:00:00 13.1 22 Este 35 Este 0 982.2 0.8 69
2021-03-01 18:00:00 14.2 17 Este 31 Este 0 981.7 0.1 67
2021-03-01 17:00:00 15.1 18 Este 34 Este 0 981.5 -0.5 62
2021-03-01 16:00:00 16 22 Este 39 Este 0 981.4 -1 59
2021-03-01 15:00:00 15.4 23 Este 45 Este 0 981.6 -- 60
2021-03-01 14:00:00 15.5 24 Este 50 Este 0 982 -- 60
2021-03-01 13:00:00 14.6 32 Sudeste 53 Este 0 982.4 -- 61
2021-03-01 12:00:00 14.1 30 Este 53 Este 0 982.6 -- 61
2021-03-01 11:00:00 12.9 30 Este 50 Sudeste 0 982.5 -- 66
2021-03-01 10:00:00 10.7 27 Este 45 Este 0 982.4 -- 72
2021-03-01 09:00:00 10 26 Este 42 Este 0 981.8 -- 74
2021-03-01 08:00:00 9.6 23 Este 44 Este 0 981.6 -- 76
2021-03-01 07:00:00 9.6 27 Este 46 Este 0 981.2 -- 75
2021-03-01 06:00:00 10.1 25 Este 38 Este 0 981.1 -- 76
2021-03-01 05:00:00 10.2 19 Este 35 Este 0 981 -- 78
2021-03-01 04:00:00 10.4 22 Este 37 Este 0.2 980.8 -- 79
2021-03-01 03:00:00 11.2 16 Este 27 Este 0 981 -- 70
2021-03-01 02:00:00 10.9 15 Este 25 Este 0 980.9 -- 71
2021-03-01 01:00:00 10.7 13 Este 21 Este 0 980.8 -- 74
2021-03-01 00:00:00 10.2 4 Nordeste 14 Nordeste 0 980.9 -- 76
2021-02-28 23:00:00 11.8 11 Este 17 Este 0 980.7 -- 69
2021-02-28 22:00:00 12 12 Este 18 Nordeste 0 980.4 -- 68
2021-02-28 21:00:00 12.4 11 Este 20 Este 0 980.3 -- 67
2021-02-28 20:00:00 12.6 12 Este 18 Este 0 980 -- 66
2021-02-28 19:00:00 14.8 8 Este 18 Este 0 979.9 -- 61
2021-02-28 18:00:00 16.3 13 Este 26 Este 0 979.7 -- 53
2021-02-28 17:00:00 17.1 12 Este 30 Este 0 979.9 -- 53
2021-02-28 16:00:00 16.8 13 Este 25 Sudeste 0 980.2 -- 50
2021-02-28 15:00:00 16.5 12 Sudeste 27 Sudeste 0 980.9 -- 52
2021-02-28 14:00:00 15.6 17 Este 36 Este 0 981.6 -- 56
2021-02-28 13:00:00 14.8 23 Este 44 Este 0 982.5 -- 55
2021-02-28 12:00:00 13.4 22 Este 43 Este 0 982.9 -- 60
2021-02-28 11:00:00 11.7 28 Este 43 Este 0 982.8 -- 65
2021-02-28 10:00:00 9.9 19 Este 31 Este 0 982.6 -- 72
2021-02-28 09:00:00 8.8 7 Este 21 Este 0 982.4 -- 74
2021-02-28 08:00:00 7.6 15 Este 24 Este 0 982.1 -- 76
2021-02-28 07:00:00 5.8 4 Sudeste 9 Este 0 982.2 -- 91
2021-02-28 06:00:00 7.1 6 Nordeste 10 Este 0 982 -- 91
2021-02-28 05:00:00 8.9 4 Nordeste 6 Norte 0 981.8 -- 78
2021-02-28 04:00:00 8.8 2 Este 4 Este 0 982.1 -- 78
2021-02-28 03:00:00 8.2 3 Noroeste 12 Sur 0 982.6 -- 83
2021-02-28 02:00:00 10.8 4 Norte 7 Noroeste 0 982.8 -- 69
2021-02-28 01:00:00 10.8 0 Calma 4 Norte 0 982.9 -- 70
2021-02-28 00:00:00 11.8 0 Calma 18 Nordeste 0 983.1 -- 67
2021-02-27 23:00:00 14.5 10 Nordeste 19 Nordeste 0 983 -- 54
2021-02-27 22:00:00 15.2 12 Nordeste 20 Nordeste 0 983.1 -- 51
2021-02-27 21:00:00 14.6 5 Nordeste 11 Norte 0 983.1 -- 59
2021-02-27 20:00:00 15 3 Este 10 Este 0 983.3 -- 61
2021-02-27 19:00:00 18.5 4 Este 7 Nordeste 0 983.4 -- 47
2021-02-27 18:00:00 19.9 3 Norte 8 Este 0 983.5 -- 42
2021-02-27 17:00:00 21 3 Sur 10 Oeste 0 983.9 -- 48
2021-02-27 16:00:00 19.6 6 Oeste 13 Sudoeste 0 984.3 -- 47
2021-02-27 15:00:00 19.6 4 Sur -- -- -- 985.1 -- 53
2021-02-27 14:00:00 17.8 5 Este 18 Este 0 986.4 -- 54
2021-02-27 13:00:00 16.5 7 Este 14 Este 0 987.2 -- 60
2021-02-27 12:00:00 13.6 6 Este 17 Oeste 0 987.8 -- 71
2021-02-27 11:00:00 10.5 3 Oeste 8 Sudeste 0 988.3 -- 88
2021-02-27 10:00:00 8.8 4 Este 9 Este 0 988.4 -- 94
2021-02-27 09:00:00 6.5 5 Este 8 Este 0 988.1 -- 94
2021-02-27 08:00:00 7 0 Calma 7 Sudeste 0 987.8 -- 96
2021-02-27 07:00:00 7.4 2 Norte 9 Este 0 987.7 -- 95
2021-02-27 06:00:00 7.9 5 Nordeste 9 Noroeste 0 987.9 -- 93
2021-02-27 05:00:00 7.7 4 Noroeste 9 Este 0 987.9 -- 93
2021-02-27 04:00:00 10.8 7 Este 19 Nordeste 0 988 -- 82
2021-02-27 03:00:00 9.2 9 Este 11 Este 0 988.5 -- 92
2021-02-27 02:00:00 9.8 3 Sudeste 14 Este 0 988.8 -- 89
2021-02-27 01:00:00 12 9 Este 20 Norte 0 988.9 -- 77
2021-02-27 00:00:00 13 8 Norte 15 Noroeste 0 989.2 -- 73
2021-02-26 23:00:00 13.1 8 Norte 13 Norte 0 989.4 -- 73
2021-02-26 22:00:00 12.2 4 Noroeste 8 Noroeste 0 989.2 -- 79
2021-02-26 21:00:00 12.5 3 Norte 13 Nordeste 0 988.9 -- 76
2021-02-26 20:00:00 14.3 9 Norte 14 Norte 0 988.6 -- 66
2021-02-26 19:00:00 14.8 8 Norte 13 Norte 0 988.5 -- 66
2021-02-26 18:00:00 15.4 5 Norte 9 Norte 0 988.5 -- 66
2021-02-26 17:00:00 15.6 3 Nordeste 20 Sudeste 0 988.6 -- 65
2021-02-26 16:00:00 15.3 13 Este 27 Este 0 988.7 -- 65
2021-02-26 15:00:00 15.7 14 Este 30 Sudeste 0 989.1 -- 65
2021-02-26 14:00:00 16 19 Este 31 Este 0 989.8 -- 63
2021-02-26 13:00:00 13.7 19 Este 37 Este 0 990.7 -- 68
2021-02-26 12:00:00 13.2 23 Este 44 Este 0 990.7 -- 69
2021-02-26 11:00:00 12.9 24 Este 45 Este 0 990.6 -- 71
2021-02-26 10:00:00 11.9 19 Este 35 Este 0 990.2 -- 76
2021-02-26 09:00:00 11.2 19 Este 37 Este 0 989.4 -- 78
2021-02-26 08:00:00 11.4 21 Este 40 Este 0 988.8 -- 77
2021-02-26 07:00:00 11.6 21 Este 39 Este 0 988.4 -- 77
2021-02-26 06:00:00 11.9 20 Este 32 Este 0 988.1 -- 75
2021-02-26 05:00:00 11.7 17 Este 33 Este 0 988 -- 74
2021-02-26 04:00:00 11.8 14 Este 26 Este 0 988.1 -- 73
2021-02-26 03:00:00 11.4 4 Nordeste 18 Nordeste 0 988.7 -- 75
2021-02-26 02:00:00 11.1 5 Nordeste 8 Este 0 989.2 -- 78
2021-02-26 01:00:00 10.6 0 Calma 6 Sudoeste 0 989.4 -- 81
2021-02-26 00:00:00 11.5 4 Este 18 Norte 0 989.5 -- 77
2021-02-25 23:00:00 12.2 10 Norte 19 Norte 0 989.4 -- 75
2021-02-25 22:00:00 12.6 9 Nordeste 20 Este 0 989.2 -- 71
2021-02-25 21:00:00 12.4 3 Nordeste 20 Este 0 989.2 -- 74
2021-02-25 20:00:00 12.2 13 Este 22 Este 0 988.8 -- 76
2021-02-25 19:00:00 13 14 Este 26 Este 0 988.5 -- 72
2021-02-25 18:00:00 14 14 Este 35 Este 0 988.2 -- 67
2021-02-25 17:00:00 15.1 23 Este -- -- 0 988.2 -- 60
2021-02-25 16:00:00 14.7 -- -- -- -- 0 988.3 -- 63
2021-02-25 15:00:00 15.1 -- -- -- -- 0 988.6 -- 63
2021-02-25 14:00:00 14.2 -- -- -- -- 0 989.3 -- 68
2021-02-25 13:00:00 12.4 16 Este -- -- 0 990 -- 75
2021-02-25 12:00:00 10.7 18 Este -- -- 0 990.3 -- 79
2021-02-25 11:00:00 10.2 -- -- -- -- 0 990.2 -- 80
2021-02-25 10:00:00 9.8 -- -- -- -- 0 989.9 -- 82
2021-02-25 09:00:00 9.3 14 Este 30 Este 0.8 989.1 -- 90
2021-02-25 08:00:00 9.9 15 Este -- -- 0 988.8 -- 80
2021-02-25 07:00:00 10.5 -- -- -- -- 0 988.2 -- 77
2021-02-25 06:00:00 10.4 16 Este 26 Este 0 988.2 -- 79
2021-02-25 05:00:00 10.5 15 Este 23 Este 0 988 -- 79
2021-02-25 04:00:00 10.6 14 Este 23 Este 0 988.1 -- 78
2021-02-25 03:00:00 10.6 10 Este 24 Este 0 988.4 -- 79
2021-02-25 02:00:00 10.9 15 Este 23 Este 0 988.4 -- 79
2021-02-25 01:00:00 11.6 14 Este 21 Este 0 988.6 -- 76
2021-02-25 00:00:00 12 12 Este 18 Este 0 989 -- 75
2021-02-24 23:00:00 12.5 12 Este 16 Este 0 989 -- 74
2021-02-24 22:00:00 12.6 11 Este 19 Este 0 989 -- 74
2021-02-24 21:00:00 12.7 13 Este 21 Este 0 988.9 -- 74
2021-02-24 20:00:00 13.5 11 Este 21 Este 0 988.8 -- 71
2021-02-24 19:00:00 15.6 10 Sudeste 28 Sudeste 0 988.8 -- 60
2021-02-24 18:00:00 17.2 17 Sudeste -- -- 0 988.7 -- 57
2021-02-24 17:00:00 18.1 -- -- -- -- 0 988.8 -- 54
2021-02-24 16:00:00 17.6 -- -- -- -- 0 989.6 -- 55
2021-02-24 15:00:00 17.2 17 Este -- -- 0 990.5 -- 55
2021-02-24 14:00:00 16.4 -- -- -- -- 0 991.3 -- 55
2021-02-24 13:00:00 15.3 -- -- -- -- 0 992 -- 58
2021-02-24 12:00:00 13.5 -- -- -- -- 0 992.9 -- 63
2021-02-24 11:00:00 11.8 -- -- -- -- 0 993.4 -- 69
2021-02-24 10:00:00 10 18 Este 28 Este 0 993.6 -- 76
2021-02-24 09:00:00 7.6 16 Este 26 Este 0 993.6 -- 84
2021-02-24 08:00:00 7.1 18 Este -- -- 0 993.2 -- 84
2021-02-24 07:00:00 7.6 16 Este 28 Este 0 993.1 -0.6 81
2021-02-24 06:00:00 7.9 16 Este 23 Este 0 993.1 -1 80
2021-02-24 05:00:00 8.2 13 Este 21 Este 0 993.3 -- 79
2021-02-24 04:00:00 8.5 12 Este 21 Este 0 993.7 -- 77
2021-02-24 03:00:00 8.4 13 Este 21 Este 0 994.1 -- 78
2021-02-24 02:00:00 9.4 14 Este 26 Este 0 994.3 0 74
2021-02-24 01:00:00 9.6 14 Este 27 Este 0 994.1 -- 73
2021-02-24 00:00:00 10 14 Este 23 Este 0 994.2 -- 70
2021-02-23 23:00:00 10.5 11 Este 16 Este 0 994.3 -- 66
2021-02-23 22:00:00 10.4 10 Este 17 Este 0 994.3 -- 66
2021-02-23 21:00:00 10.7 10 Este 16 Este 0 994.2 1.1 66
2021-02-23 20:00:00 11.6 10 Este 18 Este 0 993.7 -- 62
2021-02-23 19:00:00 14.6 9 Este 26 Este 0 993.3 -- 53
2021-02-23 18:00:00 16.3 12 Este 27 Este 0 993.1 -- 44
2021-02-23 17:00:00 16.7 13 Sudeste 28 Este 0 992.9 -- 43
2021-02-23 16:00:00 16.6 15 Sudeste 27 Sudeste 0 993.3 -- 43
2021-02-23 15:00:00 16.3 16 Sudeste -- -- 0 993.8 -- 43
2021-02-23 14:00:00 15.2 18 Este -- -- 0 994.3 -- 47
2021-02-23 13:00:00 14.1 -- -- -- -- 0 995 -- 51
2021-02-23 12:00:00 12.2 -- -- -- -- 0 995.1 -- 56
2021-02-23 11:00:00 9.9 17 Este 28 Este 0 994.8 -- 65
2021-02-23 10:00:00 7.3 18 Este 32 Este 0 994.1 -- 72
2021-02-23 09:00:00 5.4 13 Este 26 Este 0 993.4 -- 80
2021-02-23 08:00:00 4.6 14 Este 24 Este 0 992.4 -- 85
2021-02-23 07:00:00 4.5 11 Este 21 Este 0 991.6 -- 87
2021-02-23 06:00:00 3.5 3 Nordeste 15 Este 0 990.9 -- 92
2021-02-23 05:00:00 3.8 4 Nordeste 9 Este 0 990.4 -- 92
2021-02-23 04:00:00 4.6 2 Este 7 Nordeste 0 990.4 -- 89
2021-02-23 03:00:00 5 2 Sudeste 12 Noroeste 0 990.4 -- 85
2021-02-23 02:00:00 5.6 10 Este 15 Este 0 989.8 -- 85
2021-02-23 01:00:00 5.4 4 Este 10 Este 0 989.3 -- 84
2021-02-23 00:00:00 6.7 3 Sudeste 13 Este 0 989 -- 77
2021-02-22 23:00:00 8.1 4 Este 9 Este 0 988.4 -- 72
2021-02-22 22:00:00 9.5 3 Este 5 Este 0 987.1 -- 66
2021-02-22 21:00:00 9.5 3 Este 6 Oeste 0 986.4 -- 67
2021-02-22 20:00:00 10.2 3 Oeste 11 Oeste 0 986.2 -- 65
2021-02-22 19:00:00 12.5 9 Oeste 19 Oeste 0 985.3 -- 60
2021-02-22 18:00:00 14.4 14 Oeste 23 Sudoeste 0 984.7 -- 51
2021-02-22 17:00:00 15.3 8 Sudoeste 22 Oeste 0 984 -- 46
2021-02-22 16:00:00 14.9 12 Sudoeste 28 Oeste 0 983.9 -- 48
2021-02-22 15:00:00 14.2 9 Sudoeste 19 Oeste 0 984 -- 49
2021-02-22 14:00:00 12.9 7 Oeste 17 Sudoeste 0 983.9 -- 52
2021-02-22 13:00:00 11.7 7 Oeste 17 Sudoeste 0 984.4 -- 55
2021-02-22 12:00:00 10.8 4 Sudoeste 14 Oeste 0 984.1 -- 57
2021-02-22 11:00:00 9.3 4 Oeste 11 Noroeste 0 983.6 -- 65
2021-02-22 10:00:00 5.8 6 Oeste 11 Noroeste 0 983.2 -- 82
2021-02-22 09:00:00 3.9 5 Oeste 10 Noroeste 0 982.2 -- 82
2021-02-22 08:00:00 3 3 Noroeste 11 Noroeste 0 981.5 -- 83
2021-02-22 07:00:00 3.7 4 Oeste 10 Noroeste 0 980.7 1.8 82
2021-02-22 06:00:00 3.7 4 Noroeste 12 Oeste 0 980.2 -- 82
2021-02-22 05:00:00 4.4 7 Oeste 17 Noroeste 0 979.5 -- 79
2021-02-22 04:00:00 5.1 10 Noroeste 21 Noroeste 0 978.9 -- 75
2021-02-22 03:00:00 5.3 10 Noroeste 21 Noroeste 0 978.5 -- 76
2021-02-22 02:00:00 5.2 8 Noroeste 21 Oeste 0 977.8 -- 81
2021-02-22 01:00:00 5.9 11 Oeste 23 Oeste 0 976.9 -- 81
2021-02-22 00:00:00 6.5 10 Oeste 22 Oeste 0 976.2 -- 82
2021-02-21 23:00:00 7 15 Oeste 28 Oeste 0 975.5 -- 82
2021-02-21 22:00:00 7.8 16 Oeste 24 Oeste 0 974.6 3 81
2021-02-21 21:00:00 8.6 15 Oeste 24 Noroeste 0 973.7 -- 77
2021-02-21 20:00:00 9.2 10 Oeste 18 Noroeste 0 972.6 -- 71
2021-02-21 19:00:00 11 10 Noroeste 18 Oeste 0 971.6 -- 66
2021-02-21 18:00:00 11 12 Oeste 29 Oeste 0 970.5 -- 69
2021-02-21 17:00:00 11 14 Oeste 26 Noroeste 0 970 -- 64
2021-02-21 16:00:00 10.6 10 Norte 37 Noroeste 0 969.5 -- 64
2021-02-21 15:00:00 10.3 10 Noroeste 23 Noroeste 0.2 969.4 -- 71
2021-02-21 14:00:00 9.6 8 Sudoeste 25 Este 0 969.4 -- 81
2021-02-21 13:00:00 8.6 17 Este 30 Nordeste 0 968.7 -- 84
2021-02-21 12:00:00 7.6 9 Nordeste 36 Noroeste 0.2 969.1 -- 89
2021-02-21 11:00:00 7 -- -- -- -- 1 969.8 -- 88
2021-02-21 10:00:00 8.4 15 Oeste 26 Oeste 0.2 968.9 -- 94
2021-02-21 09:00:00 8.9 8 Sudoeste 18 Sur 0.8 968.1 -- 93
2021-02-21 08:00:00 10 10 Sudoeste 28 Sudoeste 0.8 966.8 -- 93
2021-02-21 07:00:00 10.3 11 Sudeste -- -- 1 966.5 -- 90
2021-02-21 06:00:00 12.1 -- -- -- -- 0 966.5 -- 67
2021-02-21 05:00:00 13.9 -- -- -- -- 0 965.7 -- 52
2021-02-21 04:00:00 14.3 23 Sudeste 42 Este 0 967.2 -- 48
2021-02-21 03:00:00 12.6 15 Este 32 Este 0 966.9 -- 61
2021-02-21 02:00:00 12.6 21 Este 32 Este 0 967.4 -- 60
2021-02-21 01:00:00 12.9 21 Este 36 Sudeste 0 968.5 -- 57
2021-02-21 00:00:00 13 19 Este 35 Este 0 969.4 -- 53
2021-02-20 23:00:00 13.4 14 Este 41 Sudeste 0 969.9 -- 51
2021-02-20 22:00:00 14.4 19 Este 37 Sudeste 0 969.6 -- 45
2021-02-20 21:00:00 14 21 Este 40 Este 0 969.8 -- 48
2021-02-20 20:00:00 14.3 23 Este 39 Sudeste 0 970 -- 48
2021-02-20 19:00:00 14.6 24 Sudeste 44 Sudeste 0 970.7 -- 50
2021-02-20 18:00:00 14.6 26 Sudeste 40 Sudeste 0 971 -- 50
2021-02-20 17:00:00 14.7 21 Sudeste 42 Sudeste 0 971.6 -- 55
2021-02-20 16:00:00 14.6 22 Sudeste 39 Sudeste 0 972.1 -- 58
2021-02-20 15:00:00 14.2 23 Sudeste 35 Sudeste 0 972.7 -- 63
2021-02-20 14:00:00 13.9 17 Sudeste 34 Sudeste 0 973.7 -- 67
2021-02-20 13:00:00 13.4 19 Sudeste 33 Sudeste 0 974.9 -- 70
2021-02-20 12:00:00 12.5 14 Sudeste 25 Este 0 975.8 -- 77
2021-02-20 11:00:00 11.5 17 Este 32 Este 0 975.8 -- 81
2021-02-20 10:00:00 10.8 19 Este 32 Sudeste 0 976.1 -- 85
2021-02-20 09:00:00 10.1 18 Sudeste 31 Sudeste 0 976 0.1 86
2021-02-20 08:00:00 9.8 11 Sudeste 17 Sudeste 0 976.2 -- 89
2021-02-20 07:00:00 9.8 7 Sudeste 17 Sudeste 0 976 -- 88
2021-02-20 06:00:00 9.4 10 Sudeste 28 Sudeste 0 975.9 -- 87
2021-02-20 05:00:00 10.2 12 Sudeste 22 Sudeste 0 976.1 -- 88
2021-02-20 04:00:00 9.9 11 Sudeste 33 Sudeste 0 976.7 -1.1 84
2021-02-20 03:00:00 10.2 15 Sudeste 31 Este 0 976.7 -- 82
2021-02-20 02:00:00 9.7 12 Este 20 Sudeste 0 977.4 -- 88
2021-02-20 01:00:00 9.8 13 Sudeste 22 Sudeste 0 977.8 -- 85
2021-02-20 00:00:00 10.5 11 Sudeste 22 Sudeste 0 978.2 -- 81
2021-02-19 23:00:00 10.7 13 Sudeste 21 Sudeste 0 978.5 -0.5 81
2021-02-19 22:00:00 11.1 11 Este 20 Este 0 978.5 -- 79
2021-02-19 21:00:00 11.5 11 Este 23 Este 0 978.5 -- 77
2021-02-19 20:00:00 12.1 10 Este 16 Sudeste 0 979 -- 75
2021-02-19 19:00:00 13.1 10 Sudeste 23 Sudeste 0 978.9 -- 71
2021-02-19 18:00:00 14.2 11 Sudeste 20 Sur 0 979.3 -- 67
2021-02-19 17:00:00 14.6 15 Sur 24 Sur 0 979.8 -0.9 65
2021-02-19 16:00:00 15.4 10 Sur 24 Sudoeste 0 979.9 -- 67
2021-02-19 15:00:00 15.6 15 Sudoeste 29 Sudoeste 0 980.3 -- 65
2021-02-19 14:00:00 16.4 13 Sur 30 Sur 0 980.7 -- 63
2021-02-19 13:00:00 15.9 15 Sur 27 Sudeste 0 981.2 -- 63
2021-02-19 12:00:00 14.5 12 Sudeste 22 Sudeste 0 981.3 -- 72
2021-02-19 11:00:00 12.4 8 Sudeste 17 Sudeste 0 981.9 -- 77
2021-02-19 10:00:00 9.7 9 Este 13 Este 0 982.1 -- 88
2021-02-19 09:00:00 7.7 7 Este 12 Este 0 981.7 -- 94
2021-02-19 08:00:00 8.1 8 Este 11 Este 0 981.5 -- 92
2021-02-19 07:00:00 8.4 4 Este 8 Este 0 981.5 -- 91
2021-02-19 06:00:00 8.3 6 Este 12 Este 0 981.3 -- 86
2021-02-19 05:00:00 8.3 6 Este 11 Sudeste 0 981.1 -- 82
2021-02-19 04:00:00 9 7 Sudeste 11 Sudeste 0 981.5 -- 79
2021-02-19 03:00:00 9.9 5 Sur 8 Sur 0 981.6 -- 78
2021-02-19 02:00:00 10.1 2 Sudoeste 8 Sudoeste 0 981.7 -- 78
2021-02-19 01:00:00 10.7 4 Sudoeste 8 Sur 0 982 -- 78
2021-02-19 00:00:00 11.2 2 Este 11 Sur 0 982 -- 77
2021-02-18 23:00:00 12.1 0 Calma 19 Sudoeste 0 982 -- 74
2021-02-18 22:00:00 12.7 4 Sudeste 11 Sudoeste 0 981.7 -- 74
2021-02-18 21:00:00 13.3 3 Sudoeste 8 Sudeste 0 981.5 -- 73
2021-02-18 20:00:00 13.4 5 Sudeste 15 Sur 0 981.1 -- 74
2021-02-18 19:00:00 14.3 8 Sur 15 Sur 0 980.6 -- 70
2021-02-18 18:00:00 16.2 6 Sur 23 Sudoeste 0 980.6 -- 68
2021-02-18 17:00:00 16.7 10 Sur 23 Sur 0 980.5 -- 62
2021-02-18 16:00:00 16.8 9 Sur 21 Sur 0 980.6 -- 63
2021-02-18 15:00:00 16.1 8 Sur 19 Sudoeste 0 981.1 -- 68
2021-02-18 14:00:00 15.5 10 Sudoeste 19 Sudoeste 0 981.7 -- 69
2021-02-18 13:00:00 13.7 9 Sur 22 Sudeste 0 982.6 -- 75
2021-02-18 12:00:00 13.4 13 Sudeste 24 Sudeste 0 982.4 -- 83
2021-02-18 11:00:00 11.6 6 Sur 12 Sudeste 0 982.6 -- 92
2021-02-18 10:00:00 9.9 3 Sur 9 Este 0 982.4 -- 95
2021-02-18 09:00:00 8.9 4 Este 6 Este 0 981.5 -- 96
2021-02-18 08:00:00 8.6 0 Calma 10 Este 0 981.2 -- 95
2021-02-18 07:00:00 9.2 7 Este 12 Este 0 980.7 -- 95
2021-02-18 06:00:00 9.9 9 Este 12 Este 0 980.7 -- 95
2021-02-18 05:00:00 10.2 5 Este 6 Este 0 981 -- 94
2021-02-18 04:00:00 10.1 2 Sur 11 Sudoeste 0 981.7 -- 94
2021-02-18 03:00:00 10.1 0 Calma 11 Sudoeste 0 981.7 -- 91
2021-02-18 02:00:00 10.3 0 Calma 6 Sur 0 982 -- 89
2021-02-18 01:00:00 11.1 4 Sudoeste 9 Sudoeste 0 982 -- 83
2021-02-18 00:00:00 11.5 3 Sudoeste 8 Este 0 981.9 -- 80
2021-02-17 23:00:00 11.6 6 Este 10 Este 0 981.9 -- 78
2021-02-17 22:00:00 12.3 4 Sudeste 8 Sudeste 0 981.6 -- 77
2021-02-17 21:00:00 13.4 3 Sudeste 14 Este 0 981.9 -- 76
2021-02-17 20:00:00 14 10 Este 13 Este 0 982 -- 77
2021-02-17 19:00:00 15.1 5 Este 15 Este 0 981.6 -- 72
2021-02-17 18:00:00 17 9 Sudeste 19 Sudeste 0 981.9 -- 65
2021-02-17 17:00:00 18.1 9 Sudeste 17 Sudeste 0 982.5 -- 60
2021-02-17 16:00:00 17.5 8 Sudeste 16 Sudeste 0 983.1 -- 61
2021-02-17 15:00:00 16.9 10 Sur 19 Sur 0 983.8 -- 64
2021-02-17 14:00:00 16.2 4 Sudeste 18 Sudeste 0 984.8 -- 66
2021-02-17 13:00:00 15.7 7 Sudeste 15 Sudeste 0 985.9 -- 72
2021-02-17 12:00:00 14.6 6 Sudeste 12 Sudeste 0 986.4 -- 78
2021-02-17 11:00:00 12.7 2 Oeste 6 Norte 0 986.9 -- 86
2021-02-17 10:00:00 11.1 0 Calma 8 Nordeste 0 986.8 -- 92
2021-02-17 09:00:00 10 3 Nordeste 9 Este 0 986.4 -- 95
2021-02-17 08:00:00 9.5 6 Este 9 Este 0 986.4 -- 94
2021-02-17 07:00:00 9.9 6 Este 10 Este 0 986.5 -- 94
2021-02-17 06:00:00 9.8 4 Este 6 Este 0 986.6 -- 92
2021-02-17 05:00:00 10 3 Sudeste 8 Este 0 986.7 -- 91
2021-02-17 04:00:00 10.3 6 Este 9 Este 0 987.1 -- 91
2021-02-17 03:00:00 10 5 Este 8 Este 0 987.4 -- 91
2021-02-17 02:00:00 11.2 0 Calma 5 Oeste 0 987.7 -- 83
2021-02-17 01:00:00 11.8 3 Nordeste 6 Este 0 988.1 -- 81
2021-02-17 00:00:00 11.7 5 Este 9 Este 0 988.5 -- 80
2021-02-16 23:00:00 11.8 4 Nordeste 8 Este 0 988.4 -- 80
2021-02-16 22:00:00 12.4 6 Este 9 Este 0 988.1 -- 76
2021-02-16 21:00:00 13.1 6 Nordeste 10 Nordeste 0 988 -- 74
2021-02-16 20:00:00 13.8 3 Este 5 Este 0 988.1 -- 71
2021-02-16 19:00:00 14.5 2 Este 8 Sudeste 0 987.8 -- 70
2021-02-16 18:00:00 15.4 5 Sudeste 18 Sudeste 0 988.1 -- 67
2021-02-16 17:00:00 16.2 10 Sudeste 17 Sudeste 0 988.2 -- 62
2021-02-16 16:00:00 16.7 3 Sudeste 12 Sur 0 988.8 -- 56
2021-02-16 15:00:00 16.4 8 Sudoeste 16 Sudoeste 0 989.2 -- 59
2021-02-16 14:00:00 15.5 6 Sudeste 18 Sudeste 0 989.6 -- 62
2021-02-16 13:00:00 14.8 6 Sudeste 23 Sudeste 0 990.4 -- 64
2021-02-16 12:00:00 13.2 13 Este 22 Sudeste 0 990.7 -- 70
2021-02-16 11:00:00 10.4 14 Este 19 Este 0 990.9 -- 77
2021-02-16 10:00:00 9.6 8 Este 14 Nordeste 0 990.6 -- 80
2021-02-16 09:00:00 8.2 8 Este 14 Nordeste 0 989.9 -- 86
2021-02-16 08:00:00 8.1 9 Este 21 Este 0 989.3 -- 84
2021-02-16 07:00:00 8.5 11 Este 19 Este 0 988.9 -- 84
2021-02-16 06:00:00 8.9 14 Este 25 Nordeste 0 988.7 -- 82
2021-02-16 05:00:00 9.6 14 Este 28 Este 0 988.7 -- 80
2021-02-16 04:00:00 10.3 15 Este 26 Este 0 989 -- 78
2021-02-16 03:00:00 10.5 16 Este 28 Este 0 989.3 -- 77
2021-02-16 02:00:00 11.1 16 Este 23 Este 0 989.8 -- 74
2021-02-16 01:00:00 11.6 15 Este 24 Este 0 989.9 -- 75
2021-02-16 00:00:00 11.9 13 Este 26 Este 0 990 -- 76
2021-02-15 23:00:00 12 15 Este 26 Este 0 990.2 -- 77
2021-02-15 22:00:00 12.1 14 Este 23 Este 0 990.1 -- 76
2021-02-15 21:00:00 12.3 11 Este 19 Este 0 990.1 -- 75
2021-02-15 20:00:00 12.8 11 Este 20 Este 0 989.8 -- 73
2021-02-15 19:00:00 14.5 14 Este 32 Este 0 989.5 -- 68
2021-02-15 18:00:00 16.4 19 Este 42 Este 0 989.8 -- 61
2021-02-15 17:00:00 17.1 19 Este 36 Este 0 990.3 -- 58
2021-02-15 16:00:00 17.1 23 Este 40 Este 0 990.5 -- 59
2021-02-15 15:00:00 16.6 23 Este 45 Sudeste 0 991.1 -- 59
2021-02-15 14:00:00 15.7 28 Este 44 Este 0 991.9 -- 61
2021-02-15 13:00:00 14.9 22 Este 48 Este 0 993.1 -- 65
2021-02-15 12:00:00 13.5 28 Este 55 Este 0 993.5 -- 68
2021-02-15 11:00:00 12.2 27 Este 47 Este 0 993.7 -- 73
2021-02-15 10:00:00 10.4 26 Este 44 Este 0 993.5 -- 78
2021-02-15 09:00:00 8.8 19 Este 33 Este 0 993.1 -- 84
2021-02-15 08:00:00 8.4 18 Este 34 Este 0 992.3 -- 85
2021-02-15 07:00:00 8.6 18 Este 39 Este 0 992.1 -- 84
2021-02-15 06:00:00 9 19 Este 32 Este 0 991.9 -- 81
2021-02-15 05:00:00 9.5 17 Este 31 Este 0 991.7 -- 78
2021-02-15 04:00:00 10.5 15 Este 23 Este 0 991.8 -- 74
2021-02-15 03:00:00 11 15 Este 25 Este 0 991.6 -- 72
2021-02-15 02:00:00 11.6 14 Este 26 Este 0 991.8 -- 71
2021-02-15 01:00:00 11.8 16 Este 25 Este 0 991.7 -- 70
2021-02-15 00:00:00 11.9 14 Este 26 Este 0 991.8 -- 71
2021-02-14 23:00:00 12.4 15 Este 26 Este 0 991.7 -- 70
2021-02-14 22:00:00 13.1 11 Este 19 Este 0 991.4 -- 67
2021-02-14 21:00:00 13.3 11 Este 17 Este 0 991.1 -- 68
2021-02-14 20:00:00 14 12 Este 18 Este 0 990.9 -- 65
2021-02-14 19:00:00 15.3 10 Este 21 Este 0 990.4 0.3 64
2021-02-14 18:00:00 17.8 13 Este 26 Este 0 990.2 -0.2 56
2021-02-14 17:00:00 19 11 Este 21 Este 0 989.9 -- 54
2021-02-14 16:00:00 18.9 9 Este 22 Este 0 990.1 -- 50
2021-02-14 15:00:00 18.3 15 Este 28 Este 0 990.4 -- 54
2021-02-14 14:00:00 17.1 17 Este 28 Este 0 990.9 -- 57
2021-02-14 13:00:00 15.9 18 Este 30 Este 0 991.6 -- 61
2021-02-14 12:00:00 13.7 17 Este 27 Este 0 991.6 -- 70
2021-02-14 11:00:00 11.9 13 Este 24 Este 0 991.4 -- 73
2021-02-14 10:00:00 10.1 10 Este 17 Este 0 990.9 -- 85
2021-02-14 09:00:00 6.2 3 Este 8 Este 0 990.5 -- 95
2021-02-14 08:00:00 6.4 3 Noroeste 11 Este 0 990.1 -- 92
2021-02-14 07:00:00 7.1 3 Norte 10 Este 0 989.7 -- 93
2021-02-14 06:00:00 6.4 0 Calma 5 Oeste 0 989.8 -- 94
2021-02-14 05:00:00 6.9 4 Sudeste 14 Este 0 989.6 -- 92
2021-02-14 04:00:00 7.3 11 Este 13 Este 0 989.7 -- 92
2021-02-14 03:00:00 7.7 2 Este 8 Oeste 0 990 -- 86
2021-02-14 02:00:00 8.1 3 Noroeste 10 Noroeste 0 990 -- 84
2021-02-14 01:00:00 8.9 2 Nordeste 7 Este 0 989.9 -- 79
2021-02-14 00:00:00 9.9 2 Sudeste 10 Este 0 989.9 -- 75
2021-02-13 23:00:00 10.5 6 Este 16 Este 0 990 -- 74
2021-02-13 22:00:00 11.6 8 Noroeste 14 Noroeste 0 990 -- 69
2021-02-13 21:00:00 13.3 8 Noroeste 13 Noroeste 0 989.8 -- 57
2021-02-13 20:00:00 13.7 6 Noroeste 10 Noroeste 0 989.6 -- 56
2021-02-13 19:00:00 16 3 Oeste 8 Oeste 0 989.1 -- 56
2021-02-13 18:00:00 17.4 5 Oeste 15 Oeste 0 988.9 -- 50
2021-02-13 17:00:00 17.8 8 Sudoeste 15 Sudoeste 0 988.7 -- 51
2021-02-13 16:00:00 17.8 6 Sur 15 Sudoeste 0 988.7 -- 54
2021-02-13 15:00:00 16.6 6 Sudoeste 17 Sudoeste 0 989.3 -- 53
2021-02-13 14:00:00 14.9 5 Sudoeste 12 Oeste 0 989.9 -- 61
2021-02-13 13:00:00 13.7 5 Sudoeste 12 Sudoeste 0 990.4 -- 72
2021-02-13 08:00:00 6.4 5 Noroeste 12 Este 0 989 0.2 96
2021-02-13 07:00:00 7.1 7 Este 11 Este 0 988.8 -0.2 94
2021-02-13 06:00:00 7.4 5 Este 9 Este 0 988.7 0 92
2021-02-13 05:00:00 8.1 2 Oeste 16 Noroeste 0 988.8 0.2 87
2021-02-13 04:00:00 8 7 Noroeste 11 Noroeste 0 989 0.4 89
2021-02-13 03:00:00 9.2 7 Noroeste 10 Noroeste 0 988.7 0.3 81
2021-02-13 02:00:00 9.4 4 Oeste 9 Noroeste 0 988.6 0.3 79
2021-02-13 01:00:00 10.2 5 Noroeste 10 Noroeste 0 988.6 0.7 75
2021-02-13 00:00:00 10.6 6 Noroeste 9 Noroeste 0 988.4 0.7 73
2021-02-12 23:00:00 10.7 7 Noroeste 13 Noroeste 0 988.3 1 76
2021-02-12 22:00:00 11.7 8 Noroeste 13 Noroeste 0 987.9 1.3 72
2021-02-12 21:00:00 12 8 Noroeste 12 Oeste 0 987.7 1.5 70
2021-02-12 20:00:00 12.8 8 Noroeste 14 Oeste 0 987.3 1.3 68
2021-02-12 19:00:00 13.7 5 Oeste 21 Oeste 0 986.6 0.6 67
2021-02-12 18:00:00 16.3 14 Oeste 26 Sudoeste 0 986.2 -0.1 61
2021-02-12 17:00:00 16.6 19 Oeste 28 Oeste 0 986 -0.6 56
2021-02-12 16:00:00 16.8 21 Oeste 28 Oeste 0 986 -0.8 55
2021-02-12 15:00:00 15.3 9 Oeste 25 Oeste 0 986.3 -0.1 64
2021-02-12 14:00:00 15.3 13 Oeste 28 Sudoeste 0 986.6 0.3 62
2021-02-12 13:00:00 14.5 13 Oeste 30 Oeste 0 986.8 1.3 75
2021-02-12 12:00:00 13.3 21 Oeste 27 Oeste 0 986.4 1.9 79
2021-02-12 11:00:00 11.6 13 Oeste 22 Oeste 0 986.3 2.4 90
2021-02-12 10:00:00 10.4 6 Sudoeste 23 Oeste 0 985.5 2.3 97
2021-02-12 09:00:00 9 10 Oeste 18 Sudoeste 0 984.5 -- 98
2021-02-12 08:00:00 8.7 2 Oeste 15 Oeste 0 983.9 -- 97
2021-02-12 07:00:00 9.6 7 Oeste 15 Oeste 0 983.2 -- 96
2021-02-12 06:00:00 10.2 4 Oeste 19 Sudoeste 0 982.4 -- 97
2021-02-12 05:00:00 10.8 15 Oeste 29 Oeste 0 981.9 -- 96
2021-02-12 04:00:00 12 21 Oeste 33 Sudoeste 0 981.7 -- 96
2021-02-12 03:00:00 12.6 15 Sudoeste 26 Sudoeste 0.2 981.5 -- 98
2021-02-12 02:00:00 12.5 4 Sudoeste 21 Sudoeste 3.4 981.4 -- 98
2021-02-12 01:00:00 12.8 12 Sudoeste 23 Sur 3.4 981.5 -- 96
2021-02-12 00:00:00 13.2 13 Sur 22 Sur 0 981.3 -- 94
2021-02-11 23:00:00 13.2 10 Sur 21 Sur 0 981.4 -- 93
2021-02-11 22:00:00 13.3 9 Sur 20 Sur 0 981.8 -- 93
2021-02-11 21:00:00 13.7 9 Sur 21 Sudeste 0 981.8 -- 91
2021-02-11 20:00:00 13.9 12 Sur 19 Sur 0 981.9 -- 91
2021-02-11 19:00:00 14.4 9 Sur 24 Sur 0 981.6 -- 89
2021-02-11 18:00:00 15.3 9 Sur 28 Sur 0 981.4 -- 85
2021-02-11 17:00:00 16.2 14 Sur 27 Sudoeste 0 981.6 -- 81
2021-02-11 16:00:00 15.7 12 Sur 28 Sur 0 981.9 -- 82
2021-02-11 15:00:00 16.6 14 Sur 25 Sur 0 982.1 -- 82
2021-02-11 14:00:00 15.3 11 Sur 24 Sudoeste 0 982.8 -- 91
2021-02-11 13:00:00 14 7 Sudeste 16 Sudoeste 0 983.5 -- 97
2021-02-11 12:00:00 13.3 7 Sur 15 Sur 0 983.7 -- 97
2021-02-11 11:00:00 12.7 10 Sur 15 Sur 0 983.3 -- 98
2021-02-11 10:00:00 12.2 7 Sur 12 Sur 0 983 -- 99
2021-02-11 09:00:00 11.8 3 Este 6 Este 0 982.7 -- 99
2021-02-11 08:00:00 11.7 2 Sudoeste 6 Sudoeste 0.2 982.2 -- 99
2021-02-11 07:00:00 11.5 2 Sudeste 6 Nordeste 0 982.1 -- 99
2021-02-11 06:00:00 11.3 4 Este 10 Este 0.4 981.9 -- 99
2021-02-11 05:00:00 11.1 4 Este 12 Este 0 981.7 -- 99
2021-02-11 04:00:00 10.8 9 Este 15 Este 0.2 982.1 -- 99
2021-02-11 03:00:00 10.8 11 Este 17 Este 0 982.1 -- 98
2021-02-11 02:00:00 10.9 11 Este 17 Este 0.2 982.2 -- 98
2021-02-11 01:00:00 11.3 6 Este 11 Este 0.4 982 -- 97
2021-02-11 00:00:00 11.4 8 Este 12 Este 0.2 981.4 -- 95
2021-02-10 23:00:00 12.3 5 Noroeste 11 Sudoeste 0 981.3 -- 86
2021-02-10 22:00:00 12.3 8 Sudoeste 15 Sudoeste 0 980.6 -- 80
2021-02-10 21:00:00 12.2 3 Oeste 7 Sudoeste 0 980.4 -- 77
2021-02-10 20:00:00 12.2 3 Oeste 10 Oeste 0 979.9 -- 77
2021-02-10 19:00:00 12.4 6 Sudoeste 13 Sudoeste 0 979.2 -- 78
2021-02-10 18:00:00 13.2 7 Sudoeste 22 Oeste 0 978.6 -- 72
2021-02-10 17:00:00 14 15 Oeste 25 Sudoeste 0 978 -- 65
2021-02-10 16:00:00 14.9 12 Oeste 28 Oeste 0 977.8 -- 59
2021-02-10 15:00:00 15.3 19 Oeste 30 Oeste 0 977.8 -- 57
2021-02-10 14:00:00 14.5 18 Oeste 31 Sudoeste 0 977.7 -- 62
2021-02-10 13:00:00 13.8 17 Oeste 26 Oeste 0 977.8 -- 65
2021-02-10 12:00:00 12.9 10 Oeste 22 Oeste 0 977.3 -- 67
2021-02-10 11:00:00 11.3 9 Oeste 20 Oeste 0 976.3 -- 76
2021-02-10 10:00:00 9.4 13 Sudoeste 17 Sudoeste 0 975 -- 85
2021-02-10 09:00:00 7.9 4 Oeste 10 Noroeste 0 973.9 -- 87
2021-02-10 08:00:00 7.4 4 Oeste 20 Oeste 0 972.7 -- 86
2021-02-10 07:00:00 8.9 10 Oeste 26 Oeste 0 971.7 -- 84
2021-02-10 06:00:00 9.1 6 Sudoeste 23 Oeste 0 971 -- 88
2021-02-10 05:00:00 10.3 11 Noroeste 40 Oeste 0 970.1 -- 89
2021-02-10 04:00:00 10.5 30 Oeste 53 Sudoeste 0 969.5 -- 85
2021-02-10 03:00:00 10.8 30 Sudoeste 64 Oeste 0 969 -- 85
2021-02-10 02:00:00 10.3 22 Sudoeste 48 Sudoeste 0 968.6 -- 86
2021-02-10 01:00:00 10.1 23 Sudoeste 49 Sudoeste 0 969 -- 88
2021-02-10 00:00:00 10 17 Sudoeste 37 Oeste 0 969.2 -- 86
2021-02-09 23:00:00 10 24 Sudoeste 42 Sudoeste 0 969.3 -- 86
2021-02-09 22:00:00 9.8 20 Sudoeste 35 Sudoeste 0 969.1 -- 87
2021-02-09 21:00:00 9.7 21 Sudoeste 46 Sudoeste 0 968.4 -- 85
2021-02-09 20:00:00 10 26 Sudoeste 51 Oeste 0 968.1 -- 86
2021-02-09 19:00:00 10.9 35 Oeste 55 Sudoeste 0.2 967.5 -- 84
2021-02-09 18:00:00 12.3 21 Sudoeste 49 Sudoeste 0 966.7 -- 79
2021-02-09 17:00:00 12.3 24 Sudoeste 47 Sudoeste 0 966.5 -- 80
2021-02-09 16:00:00 11.9 21 Sudoeste 42 Sudoeste 0 966.5 -- 84
2021-02-09 15:00:00 11.3 28 Oeste 48 Sudoeste 0.6 966.7 -- 87
2021-02-09 14:00:00 9.5 10 Oeste 57 Oeste 0.8 967.3 -- 95
2021-02-09 13:00:00 10.8 41 Oeste 62 Oeste 2.4 966.9 -- 93
2021-02-09 12:00:00 10.6 28 Sudoeste 46 Sudoeste 3.8 966.3 -- 97
2021-02-09 11:00:00 10.3 18 Sur 44 Sur 3 965.8 -- 97
2021-02-09 10:00:00 10.1 15 Sur 33 Sur 2.4 967 -- 97
2021-02-09 09:00:00 9.8 12 Sur 28 Sur 2 967.6 -- 98
2021-02-09 08:00:00 9.7 7 Sudoeste 19 Sur 3.8 968.8 -- 98
2021-02-09 07:00:00 9.8 13 Sur 24 Sur 0.4 969.1 -- 97
2021-02-09 06:00:00 9.8 14 Sur 27 Sur 0.2 970.1 -- 97
2021-02-09 05:00:00 9.4 13 Sur 24 Sur 0.2 970.5 -- 97
2021-02-09 04:00:00 9.2 13 Sur 26 Sur 0.6 971.5 -- 97
2021-02-09 03:00:00 8.8 8 Sur 22 Sudoeste 0.2 972.1 -- 96
2021-02-09 02:00:00 8.8 9 Sur 23 Sudoeste 0.4 972.6 -- 95
2021-02-09 01:00:00 9.4 9 Sudoeste 19 Sudoeste 0 973 -- 90
2021-02-09 00:00:00 9.4 12 Sudoeste 26 Oeste 0 973.4 -- 84
2021-02-08 23:00:00 9.2 11 Sudoeste 27 Sudoeste 0 973 -- 81
2021-02-08 22:00:00 9.2 17 Sudoeste 26 Sudoeste 0 972.7 -- 74
2021-02-08 21:00:00 9.2 14 Sudoeste 27 Sudoeste 0 972.5 -- 73
2021-02-08 20:00:00 9.6 17 Sudoeste 36 Oeste 0 972 -- 70
2021-02-08 19:00:00 10.3 21 Oeste 42 Oeste 0 971.3 -- 65
2021-02-08 18:00:00 11.8 30 Oeste 53 Oeste 0 970.2 -- 64
2021-02-08 17:00:00 12.5 36 Oeste 55 Oeste 0 969.7 -- 60
2021-02-08 16:00:00 12.8 35 Oeste 60 Oeste 0 969.2 -- 64
2021-02-08 15:00:00 12.1 30 Oeste 49 Oeste 0 969 -- 78
2021-02-08 14:00:00 12.1 14 Oeste 39 Oeste 0 969.1 -- 78
2021-02-08 13:00:00 10.9 21 Oeste 41 Oeste 0.6 969.8 -- 80
2021-02-08 12:00:00 9.8 9 Oeste 31 Noroeste 1.4 969.9 -- 92
2021-02-08 11:00:00 9.5 17 Oeste 47 Oeste 0.2 969.6 -- 95
2021-02-08 10:00:00 8.9 14 Oeste 34 Oeste 0.2 969 -- 95
2021-02-08 09:00:00 8.6 17 Sudoeste 31 Sudoeste 0.2 968.7 -- 96
2021-02-08 08:00:00 7.6 11 Oeste 21 Sudoeste 0 967.9 -- 95
2021-02-08 07:00:00 7.5 15 Oeste 26 Oeste 0 967.8 -- 94
2021-02-08 06:00:00 7.7 15 Oeste 23 Oeste 0 967.1 -- 94
2021-02-08 05:00:00 9 19 Oeste 33 Oeste 0 966.8 -- 93
2021-02-08 04:00:00 9.7 14 Oeste 32 Sudoeste 0.2 966.7 -- 97
2021-02-08 03:00:00 10 15 Sudoeste 34 Sudoeste 2.4 966.8 -- 98
2021-02-08 02:00:00 9.8 14 Sudoeste 39 Sudoeste 2 967.7 -- 97
2021-02-08 01:00:00 9.5 15 Sur 28 Sur 3.6 968.1 -- 97
2021-02-08 00:00:00 9.4 15 Sudoeste 32 Sur 2.2 969.8 -- 96
2021-02-07 23:00:00 8.8 10 Sur 18 Sur 0.6 970.7 -- 97
2021-02-07 22:00:00 8.6 8 Sudeste 20 Sudeste 0.2 971.7 -- 94
2021-02-07 21:00:00 8.9 6 Sudeste 16 Sur 0 972.6 -- 89
2021-02-07 20:00:00 8.7 6 Sur 22 Sudoeste 0 973 -- 90
2021-02-07 19:00:00 8.9 10 Sudoeste 21 Sudoeste 0 973.4 -- 85
2021-02-07 18:00:00 8.9 12 Sudoeste 22 Sudoeste 0 973.5 -- 87
2021-02-07 17:00:00 8.8 17 Oeste 26 Sudoeste 0.2 973.7 -- 84
2021-02-07 16:00:00 8.6 15 Oeste 32 Sudoeste 0.4 973.6 -- 80
2021-02-07 15:00:00 10 19 Oeste 30 Oeste 0 973.4 -- 71
2021-02-07 14:00:00 10.8 14 Sudoeste 30 Sudoeste 0 973.8 -- 73
2021-02-07 13:00:00 11.4 12 Sudoeste 23 Sudoeste 0 974.1 -- 68
2021-02-07 12:00:00 10.4 11 Oeste 25 Noroeste 0 974.1 -- 60
2021-02-07 11:00:00 9.3 13 Noroeste 26 Noroeste 0 973.7 -- 69
2021-02-07 10:00:00 7 13 Noroeste 21 Noroeste 0 973.4 -- 82
2021-02-07 09:00:00 4.8 8 Noroeste 21 Noroeste 0 972.9 -- 88
2021-02-07 08:00:00 5.1 13 Noroeste 22 Noroeste 0 972.4 -- 89
2021-02-07 07:00:00 5.3 8 Noroeste 20 Noroeste 0 971.8 -- 89
2021-02-07 06:00:00 6.4 13 Noroeste 21 Noroeste 0 971.8 -- 85
2021-02-07 05:00:00 6 13 Noroeste 18 Noroeste 0 971.4 -- 90
2021-02-07 04:00:00 7.3 10 Norte 19 Norte 0 971.5 -- 84
2021-02-07 03:00:00 7.2 10 Norte 18 Norte 0 971.4 -- 83
2021-02-07 02:00:00 7.6 9 Norte 17 Norte 0 971.3 -- 83
2021-02-07 01:00:00 7.7 9 Norte 16 Noroeste 0 971.1 -- 84
2021-02-07 00:00:00 8 11 Noroeste 18 Norte 0 970.8 -- 86
2021-02-06 23:00:00 8.1 10 Noroeste 19 Norte 0 970.5 -- 88
2021-02-06 22:00:00 9 10 Norte 18 Norte 0 969.7 -- 87
2021-02-06 21:00:00 10 7 Norte 11 Noroeste 0 968.8 -- 92
2021-02-06 20:00:00 10 6 Este 12 Este 0 968.3 -- 94
2021-02-06 19:00:00 10.5 2 Noroeste 8 Noroeste 0 967.6 -- 92
2021-02-06 18:00:00 10.9 6 Oeste 19 Noroeste 0.2 967.2 -- 89
2021-02-06 17:00:00 12.1 13 Oeste 20 Oeste 0 966.6 -- 85
2021-02-06 16:00:00 11.7 5 Sur 12 Sudoeste 0.8 965.9 -- 88
2021-02-06 15:00:00 12.2 5 Noroeste 14 Noroeste 0 965.8 -- 83
2021-02-06 14:00:00 10.9 6 Noroeste 13 Noroeste 0.2 966 -- 93
2021-02-06 13:00:00 10.5 3 Oeste 8 Sudeste 0 966.4 -- 94
2021-02-06 12:00:00 10.5 5 Sudeste 9 Norte 0 966 -- 95
2021-02-06 11:00:00 9.6 3 Norte 9 Oeste 0 965.5 -- 99
2021-02-06 10:00:00 9 5 Oeste 10 Oeste 0 965.2 -- 99
2021-02-06 09:00:00 8.8 3 Noroeste 6 Noroeste 0 964.8 -- 99
2021-02-06 08:00:00 8.7 4 Noroeste 6 Oeste 0 964.3 -- 99
2021-02-06 07:00:00 8.9 0 Calma 8 Este 0.2 963.9 -- 99
2021-02-06 06:00:00 9.1 3 Este 10 Noroeste 0 963.8 -- 99
2021-02-06 05:00:00 8.8 7 Noroeste 12 Noroeste 0 963.7 -- 99
2021-02-06 04:00:00 9.4 3 Oeste 6 Norte 0.4 963.8 -- 99
2021-02-06 03:00:00 9.2 4 Norte 11 Norte 0.2 964 -- 99
2021-02-06 02:00:00 9.1 4 Este 10 Este 0 964.4 -- 99
2021-02-06 01:00:00 9.2 7 Este 11 Este 0.4 964.9 -- 99
2021-02-06 00:00:00 9.2 6 Este 11 Este 0 965.1 -- 99
2021-02-05 23:00:00 9.2 4 Este 9 Este 0.2 965.1 -- 98
2021-02-05 22:00:00 9.2 5 Este 8 Este 0.2 965 -- 98
2021-02-05 21:00:00 9.4 2 Nordeste 8 Sudeste 0.6 965.5 -- 98
2021-02-05 20:00:00 9.9 2 Este 5 Este 1.4 965.7 -- 98
2021-02-05 19:00:00 10.2 2 Sudeste 6 Noroeste 0.4 965.5 -- 97
2021-02-05 18:00:00 10.4 3 Noroeste 11 Noroeste 0.2 965.4 -- 97
2021-02-05 17:00:00 10.7 5 Noroeste 9 Noroeste 0.8 965.4 -- 95
2021-02-05 16:00:00 10.9 0 Calma 12 Sudeste 0.4 966 -- 95
2021-02-05 15:00:00 11.1 9 Sudeste 14 Sur 1.4 966.8 -- 95
2021-02-05 14:00:00 11.4 2 Sur 6 Sudoeste 0.6 967.8 -- 96
2021-02-05 13:00:00 11.6 4 Sudoeste 10 Nordeste 0.2 968.4 -- 95
2021-02-05 12:00:00 11 4 Nordeste 11 Este 1.2 968.5 -- 96
2021-02-05 11:00:00 10.7 5 Este 18 Este 0.4 968.9 -- 96
2021-02-05 10:00:00 10.6 9 Este 28 Nordeste 0.2 968.4 -- 96
2021-02-05 09:00:00 10.5 12 Nordeste 30 Este 0.8 968.2 -- 98
2021-02-05 08:00:00 9.8 7 Este 35 Este 1 968.7 -- 98
2021-02-05 07:00:00 9 9 Este 15 Este 0.2 968.3 -- 98
2021-02-05 06:00:00 9.3 5 Nordeste 13 Nordeste 0 968.3 -- 97
2021-02-05 05:00:00 9.1 8 Nordeste 16 Norte 0 968.8 -- 99
2021-02-05 04:00:00 8.9 7 Nordeste 16 Nordeste 0.2 969.6 -- 99
2021-02-05 03:00:00 8.9 5 Este 9 Sudeste 1.4 970.5 -- 98
2021-02-05 02:00:00 9.2 5 Sudeste 25 Norte 0 970.8 -- 96
2021-02-05 01:00:00 8.7 12 Norte 21 Norte 1.6 971.2 -- 99
2021-02-05 00:00:00 8.8 10 Oeste 15 Sudoeste 2.4 973.3 -- 98
2021-02-04 23:00:00 8.6 8 Este 15 Nordeste 0 971.5 -- 96
2021-02-04 22:00:00 8.5 7 Norte 13 Norte 0 971.9 -- 96
2021-02-04 21:00:00 8.8 6 Nordeste 13 Nordeste 0.6 971.9 -- 95
2021-02-04 20:00:00 9.1 3 Noroeste 7 Sudoeste 0.4 973.2 -- 95
2021-02-04 19:00:00 9.2 6 Este 16 Nordeste 0 971.4 -- 92
2021-02-04 18:00:00 9.7 10 Este 26 Este 0 972 -- 92
2021-02-04 17:00:00 9.7 13 Este 24 Este 0.6 971.9 -- 96
2021-02-04 16:00:00 10 14 Este 24 Nordeste 1.2 971.4 -- 97
2021-02-04 15:00:00 10.3 10 Este 21 Este 0.6 972.5 -- 96
2021-02-04 14:00:00 10.3 11 Nordeste 20 Nordeste 2 972.4 -- 98
2021-02-04 13:00:00 9.8 7 Este 12 Nordeste 2.6 973.6 -- 98
2021-02-04 12:00:00 9.6 8 Noroeste 13 Noroeste 3 974.4 -- 98
2021-02-04 11:00:00 9.5 7 Este 12 Nordeste 1.8 973.6 -- 98
2021-02-04 10:00:00 9.4 4 Este 10 Sudeste 2.2 974 -- 98
2021-02-04 09:00:00 9.4 8 Sudeste 15 Este 0.2 974 -- 97
2021-02-04 08:00:00 9.5 8 Este 20 Nordeste 0.8 973.5 -- 97
2021-02-04 07:00:00 10.1 10 Este 18 Sudeste 0 973.4 -- 96
2021-02-04 06:00:00 10.3 6 Este 14 Sudeste 0 974 -- 97
2021-02-04 05:00:00 10.7 4 Sur 16 Sudeste 0 974.4 -- 98
2021-02-04 04:00:00 11 8 Sudeste 15 Sudeste 0.2 974.8 -- 98
2021-02-04 03:00:00 11 4 Sudeste 11 Sudeste 0 975.4 -- 98
2021-02-04 02:00:00 11.3 5 Sur 14 Sur 0 975.8 -- 98
2021-02-04 01:00:00 11.4 6 Sudeste 11 Sur 0 976.1 -- 98
2021-02-04 00:00:00 11.5 5 Sudeste 15 Sur 0 976 -- 98
2021-02-03 23:00:00 11.4 4 Sudeste 13 Sur 0 976.2 -- 97
2021-02-03 22:00:00 11.2 9 Sur 14 Sur 0 976.3 -- 97
2021-02-03 21:00:00 11.1 6 Sudoeste 22 Sudoeste 0.4 976.1 -- 94
2021-02-03 20:00:00 11.5 7 Sudoeste 14 Sur 0 975.8 -- 95
2021-02-03 19:00:00 11.9 5 Sur 12 Sur 0.2 975.8 -- 96
2021-02-03 18:00:00 11.9 8 Sudoeste 26 Sudoeste 1.2 975.6 -- 96
2021-02-03 17:00:00 12.2 9 Sudoeste 28 Sudoeste 3.6 976 -- 98
2021-02-03 16:00:00 12.1 6 Oeste 22 Oeste 3.8 976.1 -- 97
2021-02-03 15:00:00 12.4 16 Sudoeste 33 Sudoeste 1.8 976.5 -- 94
2021-02-03 14:00:00 13.2 13 Sur 31 Sur 0.4 977.1 -- 96
2021-02-03 13:00:00 12.4 12 Sur 22 Sur 0.4 977.8 -- 98
2021-02-03 12:00:00 11.7 5 Sur 17 Sur 0.8 978.5 -- 98
2021-02-03 11:00:00 11.1 9 Sur 19 Sudeste 0.8 978.5 -- 98
2021-02-03 10:00:00 10.8 9 Sur 19 Sur 0.2 978.2 -- 97
2021-02-03 09:00:00 10.7 9 Sudeste 17 Sur 0 977.8 -- 97
2021-02-03 08:00:00 10.7 9 Sur 20 Sur 0.2 977.4 -- 96
2021-02-03 07:00:00 10.7 9 Sur 20 Sudoeste 0 977.2 -- 96
2021-02-03 06:00:00 10.8 13 Sur 24 Sur 0.2 977.3 -- 94
2021-02-03 05:00:00 11.3 12 Sur 31 Sur 0 977.3 -- 89
2021-02-03 04:00:00 11.7 14 Sur 30 Sur 0 977.9 -- 81
2021-02-03 03:00:00 11.8 14 Sur 27 Sur 0 978.4 -- 80
2021-02-03 02:00:00 11.9 11 Sur 30 Sur 0 978.9 -- 82
2021-02-03 01:00:00 11.8 14 Sur 22 Sur 0 979.3 -- 84
2021-02-03 00:00:00 11.6 9 Sur 19 Sur 0 979.5 -- 86
2021-02-02 23:00:00 11.7 12 Sur 22 Sur 0 979.7 -- 84
2021-02-02 22:00:00 12.2 6 Sur 17 Sudeste 0 980 -- 83
2021-02-02 21:00:00 12.3 9 Sudeste 18 Sudeste 0 979.8 -- 82
2021-02-02 20:00:00 12.5 11 Sur 21 Sur 0 980.3 -- 82
2021-02-02 19:00:00 12.7 10 Sur 20 Sur 0 980 -- 79
2021-02-02 18:00:00 13.3 12 Sur 25 Sudoeste 0 979.9 -- 78
2021-02-02 17:00:00 13.7 11 Sur 20 Sur 0 979.9 -- 78
2021-02-02 16:00:00 13.7 11 Sudoeste 29 Sudoeste 0 980.4 -- 75
2021-02-02 15:00:00 14.4 11 Sudoeste 28 Sudoeste 0 981.3 -- 71
2021-02-02 14:00:00 16.2 13 Sur 33 Sudoeste 0 981.4 -- 63
2021-02-02 13:00:00 15.6 13 Sudoeste 26 Sur 0 982.3 -- 70
2021-02-02 12:00:00 13.6 7 Sudoeste 16 Sur 0 983 -- 87
2021-02-02 11:00:00 12.6 8 Sudoeste 15 Sudoeste 0 983 -- 92
2021-02-02 10:00:00 11.5 4 Sudoeste 13 Sudoeste 0 982.9 -- 97
2021-02-02 09:00:00 11.1 7 Sudoeste 15 Sur 0 982.5 -- 98
2021-02-02 08:00:00 11.6 5 Sudoeste 11 Sur 0 982.3 -- 98
2021-02-02 07:00:00 11.7 5 Sur 10 Sur 0 982.1 -- 98
2021-02-02 06:00:00 11.8 5 Sudoeste 14 Sur 0 982.4 -- 98
2021-02-02 05:00:00 11.8 6 Sudoeste 17 Sudoeste 0 982.4 -- 97
2021-02-02 04:00:00 11.7 8 Sur 18 Sur 0 982.8 -- 96
2021-02-02 03:00:00 11.5 8 Sudoeste 16 Sudoeste 0 983.1 -- 96
2021-02-02 02:00:00 11.8 6 Sur 13 Sur 0 983.3 -- 93
2021-02-02 01:00:00 11.8 5 Sudeste 15 Sudoeste 0 983.4 -- 93
2021-02-02 00:00:00 12.3 4 Sudoeste 10 Sur 0 983.4 -- 87
2021-02-01 23:00:00 12.3 5 Sur 9 Sudoeste 0 983.5 -- 85
2021-02-01 22:00:00 12.3 8 Oeste 15 Sudoeste 0 983.5 -- 86
2021-02-01 21:00:00 11.8 12 Oeste 18 Sudoeste 0 983.3 -- 87
2021-02-01 20:00:00 12.4 9 Sudoeste 16 Sudoeste 0 983.2 -- 80
2021-02-01 19:00:00 13.3 8 Sudoeste 25 Sudoeste 0 982.7 -- 76
2021-02-01 18:00:00 14.2 12 Sudoeste 31 Sudoeste 0 982.2 -- 73
2021-02-01 17:00:00 15.7 21 Sudoeste 38 Sudoeste 0 982.4 -- 71
2021-02-01 16:00:00 15.8 24 Sudoeste 38 Sudoeste 0 982.7 -- 68
2021-02-01 15:00:00 15.3 22 Oeste 34 Oeste 0 982.6 -- 70
2021-02-01 14:00:00 14.3 15 Oeste 24 Oeste 0 983 -- 81
2021-02-01 13:00:00 13.7 12 Oeste 27 Oeste 0 983.7 -- 79
2021-02-01 12:00:00 13.5 13 Oeste 24 Sudoeste 0 983.7 -- 84
2021-02-01 11:00:00 11.4 8 Sudoeste 14 Sudoeste 0 983.3 -- 90
2021-02-01 10:00:00 9.4 3 Oeste 6 Sudoeste 0 982.6 -- 94
2021-02-01 09:00:00 7.9 0 Calma 7 Este 0 982.1 -- 96
2021-02-01 08:00:00 7.8 4 Sudoeste 12 Oeste 0 981.6 -- 95
2021-02-01 07:00:00 7.6 9 Oeste 14 Oeste 0 981.1 -- 94
2021-02-01 06:00:00 8.6 5 Oeste 16 Oeste 0 980.7 -- 92
2021-02-01 05:00:00 9.2 6 Oeste 9 Oeste 0 980.5 -- 92
2021-02-01 04:00:00 9.6 0 Calma 15 Noroeste 0 980.2 -- 91
2021-02-01 03:00:00 10.8 9 Noroeste 19 Oeste 0 980.1 -- 87
2021-02-01 02:00:00 9.6 6 Oeste 15 Oeste 0 980.3 -- 93
2021-02-01 01:00:00 10.2 11 Oeste 24 Oeste 0 980.3 -- 93
2021-02-01 00:00:00 11.5 4 Noroeste 30 Sudoeste 0 980.6 -- 92
2021-01-31 23:00:00 12.3 21 Oeste 29 Oeste 0 979.6 -- 94
2021-01-31 22:00:00 12.5 18 Oeste 25 Oeste 0 979.4 -- 94
2021-01-31 21:00:00 12.8 15 Oeste 34 Sudoeste 0 979.2 -- 95
2021-01-31 20:00:00 14.1 20 Oeste 35 Sudoeste 0 979.1 -- 93
2021-01-31 19:00:00 14.6 22 Oeste 33 Sudoeste 0 978.6 -- 93
2021-01-31 18:00:00 14.6 21 Oeste 31 Oeste 0 978.5 -- 94
2021-01-31 17:00:00 13.2 9 Sudoeste 26 Oeste 0 978.6 -- 98
2021-01-31 16:00:00 12.7 5 Oeste 12 Oeste 0 978.8 -- 97
2021-01-31 15:00:00 12 7 Noroeste 14 Noroeste 0 979.1 -- 97
2021-01-31 14:00:00 11.7 6 Noroeste 13 Noroeste 0 979.9 -- 97
2021-01-31 13:00:00 11.3 6 Noroeste -- -- 0.2 980.9 -- 97
2021-01-31 12:00:00 11.3 7 Oeste 21 Oeste 0.2 981.3 -- 97
2021-01-31 11:00:00 11.3 12 Oeste 19 Oeste 0 981.4 -- 93
2021-01-31 10:00:00 10.3 4 Oeste 9 Oeste 0 981.3 -- 91
2021-01-31 09:00:00 9.6 0 Calma 6 Sudoeste 0 980.9 -- 90
2021-01-31 08:00:00 9.2 2 Este 7 Sudeste 0 981 -- 90
2021-01-31 07:00:00 9.2 3 Este -- -- 0 980.8 -- 86
2021-01-31 06:00:00 8.7 0 Calma 8 Oeste 0 980.9 -- 87
2021-01-31 05:00:00 8.2 5 Oeste 10 Oeste 0 980.8 -- 89
2021-01-31 04:00:00 8.1 3 Sudeste -- -- 0 980.8 -- 85
2021-01-31 03:00:00 7.6 2 Este 13 Sudoeste 0 980.9 -- 82
2021-01-31 02:00:00 7.9 9 Sudoeste 14 Sudoeste 0 981 -- 83
2021-01-31 01:00:00 8.4 6 Sudoeste -- -- 0 980.8 -- 78
2021-01-31 00:00:00 8.7 8 Sur 13 Sur 0 980.7 -- 80